sensor_id;sensor_type;location;lat;lon;timestamp;pressure;altitude;pressure_sealevel;temperature;humidity
64792;BME280;51226;47.504;19.074;2024-03-02T00:02:13;99644.00;;;14.06;63.35
64792;BME280;51226;47.504;19.074;2024-03-02T00:05:20;99643.97;;;14.04;63.15
64792;BME280;51226;47.504;19.074;2024-03-02T00:08:24;99642.97;;;13.93;63.48
64792;BME280;51226;47.504;19.074;2024-03-02T00:11:30;99635.09;;;13.90;63.48
64792;BME280;51226;47.504;19.074;2024-03-02T00:14:33;99628.91;;;13.86;63.11
64792;BME280;51226;47.504;19.074;2024-03-02T00:17:35;99627.25;;;13.95;62.33
64792;BME280;51226;47.504;19.074;2024-03-02T00:20:38;99619.78;;;14.27;61.25
64792;BME280;51226;47.504;19.074;2024-03-02T00:23:41;99618.88;;;14.26;61.07
64792;BME280;51226;47.504;19.074;2024-03-02T00:26:45;99621.44;;;14.20;61.26
64792;BME280;51226;47.504;19.074;2024-03-02T00:29:48;99619.56;;;14.08;61.39
64792;BME280;51226;47.504;19.074;2024-03-02T00:32:50;99623.91;;;14.05;61.39
64792;BME280;51226;47.504;19.074;2024-03-02T00:35:56;99628.34;;;14.12;60.95
64792;BME280;51226;47.504;19.074;2024-03-02T00:38:58;99626.41;;;13.96;61.79
64792;BME280;51226;47.504;19.074;2024-03-02T00:42:01;99632.53;;;13.98;61.49
64792;BME280;51226;47.504;19.074;2024-03-02T00:45:07;99636.66;;;13.77;62.44
64792;BME280;51226;47.504;19.074;2024-03-02T00:48:10;99626.97;;;13.68;62.66
64792;BME280;51226;47.504;19.074;2024-03-02T00:51:13;99635.97;;;13.90;61.41
64792;BME280;51226;47.504;19.074;2024-03-02T00:54:18;99631.28;;;13.68;62.34
64792;BME280;51226;47.504;19.074;2024-03-02T00:57:21;99639.16;;;13.68;62.56
64792;BME280;51226;47.504;19.074;2024-03-02T01:00:25;99646.03;;;13.60;62.89
64792;BME280;51226;47.504;19.074;2024-03-02T01:03:28;99634.31;;;13.99;61.16
64792;BME280;51226;47.504;19.074;2024-03-02T01:06:31;99637.94;;;14.10;60.64
64792;BME280;51226;47.504;19.074;2024-03-02T01:09:34;99642.25;;;14.05;60.48
64792;BME280;51226;47.504;19.074;2024-03-02T01:12:37;99630.59;;;13.81;61.57
64792;BME280;51226;47.504;19.074;2024-03-02T01:15:39;99623.16;;;14.20;60.09
64792;BME280;51226;47.504;19.074;2024-03-02T01:18:42;99625.72;;;14.12;60.21
64792;BME280;51226;47.504;19.074;2024-03-02T01:21:45;99624.12;;;14.25;59.73
64792;BME280;51226;47.504;19.074;2024-03-02T01:24:48;99620.31;;;13.97;60.43
64792;BME280;51226;47.504;19.074;2024-03-02T01:27:51;99619.28;;;13.84;61.13
64792;BME280;51226;47.504;19.074;2024-03-02T01:30:54;99608.16;;;14.03;60.12
64792;BME280;51226;47.504;19.074;2024-03-02T01:33:57;99595.84;;;13.98;60.35
64792;BME280;51226;47.504;19.074;2024-03-02T01:37:00;99596.63;;;13.89;60.35
64792;BME280;51226;47.504;19.074;2024-03-02T01:40:03;99592.28;;;13.93;60.33
64792;BME280;51226;47.504;19.074;2024-03-02T01:43:11;99585.22;;;13.85;60.76
64792;BME280;51226;47.504;19.074;2024-03-02T01:46:14;99582.78;;;14.02;60.09
64792;BME280;51226;47.504;19.074;2024-03-02T01:49:17;99593.06;;;13.84;60.72
64792;BME280;51226;47.504;19.074;2024-03-02T01:52:19;99581.59;;;13.74;61.03
64792;BME280;51226;47.504;19.074;2024-03-02T01:55:22;99588.16;;;14.16;59.34
64792;BME280;51226;47.504;19.074;2024-03-02T01:58:25;99579.84;;;13.71;60.71
64792;BME280;51226;47.504;19.074;2024-03-02T02:01:28;99590.28;;;13.70;60.75
64792;BME280;51226;47.504;19.074;2024-03-02T02:04:31;99593.66;;;13.61;61.11
64792;BME280;51226;47.504;19.074;2024-03-02T02:07:33;99599.19;;;13.84;60.43
64792;BME280;51226;47.504;19.074;2024-03-02T02:10:37;99603.47;;;13.78;60.40
64792;BME280;51226;47.504;19.074;2024-03-02T02:13:40;99599.13;;;13.81;60.25
64792;BME280;51226;47.504;19.074;2024-03-02T02:16:43;99608.09;;;13.99;59.08
64792;BME280;51226;47.504;19.074;2024-03-02T02:19:45;99613.31;;;13.97;59.25
64792;BME280;51226;47.504;19.074;2024-03-02T02:22:55;99613.53;;;14.16;58.87
64792;BME280;51226;47.504;19.074;2024-03-02T02:25:58;99615.09;;;14.00;59.04
64792;BME280;51226;47.504;19.074;2024-03-02T02:29:01;99614.13;;;13.93;59.12
64792;BME280;51226;47.504;19.074;2024-03-02T02:32:03;99614.47;;;13.50;60.72
64792;BME280;51226;47.504;19.074;2024-03-02T02:35:06;99621.31;;;13.39;61.31
64792;BME280;51226;47.504;19.074;2024-03-02T02:38:09;99623.38;;;13.62;60.43
64792;BME280;51226;47.504;19.074;2024-03-02T02:41:14;99618.75;;;13.44;60.93
64792;BME280;51226;47.504;19.074;2024-03-02T02:44:17;99615.34;;;13.51;60.83
64792;BME280;51226;47.504;19.074;2024-03-02T02:47:19;99606.63;;;13.50;60.58
64792;BME280;51226;47.504;19.074;2024-03-02T02:50:22;99614.53;;;13.53;60.31
64792;BME280;51226;47.504;19.074;2024-03-02T02:53:25;99598.19;;;13.75;59.40
64792;BME280;51226;47.504;19.074;2024-03-02T02:56:27;99594.41;;;13.52;60.08
64792;BME280;51226;47.504;19.074;2024-03-02T02:59:30;99600.53;;;13.51;59.84
64792;BME280;51226;47.504;19.074;2024-03-02T03:02:33;99601.50;;;13.58;59.48
64792;BME280;51226;47.504;19.074;2024-03-02T03:05:36;99609.25;;;13.50;59.83
64792;BME280;51226;47.504;19.074;2024-03-02T03:08:38;99610.03;;;13.43;59.93
64792;BME280;51226;47.504;19.074;2024-03-02T03:11:41;99617.66;;;13.31;60.28
64792;BME280;51226;47.504;19.074;2024-03-02T03:14:43;99621.34;;;13.42;60.01
64792;BME280;51226;47.504;19.074;2024-03-02T03:17:46;99623.81;;;13.33;60.11
64792;BME280;51226;47.504;19.074;2024-03-02T03:20:49;99626.59;;;13.42;59.74
64792;BME280;51226;47.504;19.074;2024-03-02T03:23:52;99612.84;;;13.59;58.69
64792;BME280;51226;47.504;19.074;2024-03-02T03:26:55;99616.16;;;13.45;59.15
64792;BME280;51226;47.504;19.074;2024-03-02T03:29:57;99618.03;;;13.54;58.82
64792;BME280;51226;47.504;19.074;2024-03-02T03:33:00;99616.06;;;13.39;59.18
64792;BME280;51226;47.504;19.074;2024-03-02T03:36:03;99615.91;;;13.30;59.37
64792;BME280;51226;47.504;19.074;2024-03-02T03:39:06;99618.50;;;13.28;59.24
64792;BME280;51226;47.504;19.074;2024-03-02T03:42:09;99621.97;;;13.27;59.18
64792;BME280;51226;47.504;19.074;2024-03-02T03:45:11;99620.34;;;13.32;59.00
64792;BME280;51226;47.504;19.074;2024-03-02T03:48:14;99621.22;;;13.33;58.83
64792;BME280;51226;47.504;19.074;2024-03-02T03:51:16;99626.34;;;13.27;59.27
64792;BME280;51226;47.504;19.074;2024-03-02T03:54:19;99628.09;;;13.28;59.72
64792;BME280;51226;47.504;19.074;2024-03-02T03:57:22;99634.25;;;13.30;60.10
64792;BME280;51226;47.504;19.074;2024-03-02T04:00:25;99638.75;;;13.37;60.10
64792;BME280;51226;47.504;19.074;2024-03-02T04:03:28;99641.38;;;13.39;60.22
64792;BME280;51226;47.504;19.074;2024-03-02T04:06:30;99651.84;;;13.37;60.64
64792;BME280;51226;47.504;19.074;2024-03-02T04:09:33;99644.94;;;13.44;60.46
64792;BME280;51226;47.504;19.074;2024-03-02T04:12:36;99649.47;;;13.56;60.53
64792;BME280;51226;47.504;19.074;2024-03-02T04:15:39;99648.50;;;13.47;60.82
64792;BME280;51226;47.504;19.074;2024-03-02T04:18:43;99643.84;;;13.31;61.75
64792;BME280;51226;47.504;19.074;2024-03-02T04:21:45;99658.50;;;13.20;62.53
64792;BME280;51226;47.504;19.074;2024-03-02T04:24:48;99657.72;;;13.24;62.89
64792;BME280;51226;47.504;19.074;2024-03-02T04:27:52;99653.31;;;13.23;62.77
64792;BME280;51226;47.504;19.074;2024-03-02T04:30:54;99656.63;;;13.11;63.42
64792;BME280;51226;47.504;19.074;2024-03-02T04:33:57;99651.44;;;13.12;63.50
64792;BME280;51226;47.504;19.074;2024-03-02T04:37:00;99654.59;;;12.91;64.16
64792;BME280;51226;47.504;19.074;2024-03-02T04:40:03;99653.88;;;13.02;64.29
64792;BME280;51226;47.504;19.074;2024-03-02T04:43:05;99650.28;;;12.95;64.44
64792;BME280;51226;47.504;19.074;2024-03-02T04:46:08;99653.62;;;12.85;64.82
64792;BME280;51226;47.504;19.074;2024-03-02T04:49:11;99656.50;;;13.02;64.58
64792;BME280;51226;47.504;19.074;2024-03-02T04:52:14;99651.97;;;12.93;65.13
64792;BME280;51226;47.504;19.074;2024-03-02T04:55:17;99653.59;;;12.86;65.41
64792;BME280;51226;47.504;19.074;2024-03-02T04:58:38;99657.03;;;12.82;65.86
64792;BME280;51226;47.504;19.074;2024-03-02T05:01:41;99665.87;;;12.89;66.61
64792;BME280;51226;47.504;19.074;2024-03-02T05:04:43;99664.22;;;12.94;65.69
64792;BME280;51226;47.504;19.074;2024-03-02T05:07:46;99662.91;;;12.69;66.90
64792;BME280;51226;47.504;19.074;2024-03-02T05:10:49;99655.78;;;12.60;67.09
64792;BME280;51226;47.504;19.074;2024-03-02T05:13:52;99655.72;;;12.55;67.31
64792;BME280;51226;47.504;19.074;2024-03-02T05:16:54;99659.00;;;12.45;67.75
64792;BME280;51226;47.504;19.074;2024-03-02T05:19:57;99657.28;;;12.47;68.40
64792;BME280;51226;47.504;19.074;2024-03-02T05:22:59;99667.88;;;12.53;68.57
64792;BME280;51226;47.504;19.074;2024-03-02T05:26:02;99667.28;;;12.68;67.95
64792;BME280;51226;47.504;19.074;2024-03-02T05:29:05;99669.66;;;12.56;68.27
64792;BME280;51226;47.504;19.074;2024-03-02T05:32:08;99668.53;;;12.41;68.95
64792;BME280;51226;47.504;19.074;2024-03-02T05:35:10;99664.34;;;12.50;69.20
64792;BME280;51226;47.504;19.074;2024-03-02T05:38:15;99661.62;;;12.45;69.50
64792;BME280;51226;47.504;19.074;2024-03-02T05:41:18;99663.31;;;12.41;69.63
64792;BME280;51226;47.504;19.074;2024-03-02T05:44:20;99654.66;;;12.46;69.17
64792;BME280;51226;47.504;19.074;2024-03-02T05:47:24;99659.09;;;12.50;69.27
64792;BME280;51226;47.504;19.074;2024-03-02T05:50:28;99668.03;;;12.63;69.29
64792;BME280;51226;47.504;19.074;2024-03-02T05:53:30;99672.41;;;12.62;69.36
64792;BME280;51226;47.504;19.074;2024-03-02T05:56:33;99679.44;;;12.66;69.24
64792;BME280;51226;47.504;19.074;2024-03-02T05:59:35;99682.91;;;12.65;69.12
64792;BME280;51226;47.504;19.074;2024-03-02T06:02:41;99683.94;;;12.73;68.44
64792;BME280;51226;47.504;19.074;2024-03-02T06:05:43;99697.75;;;12.66;68.89
64792;BME280;51226;47.504;19.074;2024-03-02T06:08:46;99704.59;;;12.58;69.13
64792;BME280;51226;47.504;19.074;2024-03-02T06:11:49;99698.03;;;12.82;68.09
64792;BME280;51226;47.504;19.074;2024-03-02T06:14:51;99701.28;;;12.68;68.75
64792;BME280;51226;47.504;19.074;2024-03-02T06:17:54;99699.66;;;12.75;68.37
64792;BME280;51226;47.504;19.074;2024-03-02T06:20:57;99705.50;;;12.60;68.68
64792;BME280;51226;47.504;19.074;2024-03-02T06:24:00;99702.91;;;12.62;69.18
64792;BME280;51226;47.504;19.074;2024-03-02T06:27:03;99705.44;;;12.57;69.37
64792;BME280;51226;47.504;19.074;2024-03-02T06:30:07;99710.81;;;12.66;69.31
64792;BME280;51226;47.504;19.074;2024-03-02T06:33:10;99709.22;;;12.74;69.14
64792;BME280;51226;47.504;19.074;2024-03-02T06:36:13;99705.00;;;12.81;68.53
64792;BME280;51226;47.504;19.074;2024-03-02T06:39:18;99713.66;;;12.77;68.65
64792;BME280;51226;47.504;19.074;2024-03-02T06:42:21;99714.19;;;12.59;69.54
64792;BME280;51226;47.504;19.074;2024-03-02T06:45:23;99714.25;;;12.62;69.60
64792;BME280;51226;47.504;19.074;2024-03-02T06:48:26;99713.28;;;12.57;70.08
64792;BME280;51226;47.504;19.074;2024-03-02T06:51:31;99713.34;;;12.60;70.08
64792;BME280;51226;47.504;19.074;2024-03-02T06:54:33;99710.91;;;12.71;69.68
64792;BME280;51226;47.504;19.074;2024-03-02T06:57:37;99716.25;;;12.75;69.63
64792;BME280;51226;47.504;19.074;2024-03-02T07:00:40;99717.38;;;12.90;69.08
64792;BME280;51226;47.504;19.074;2024-03-02T07:03:42;99716.41;;;12.85;68.88
64792;BME280;51226;47.504;19.074;2024-03-02T07:06:46;99717.22;;;12.82;69.07
64792;BME280;51226;47.504;19.074;2024-03-02T07:09:49;99712.81;;;12.78;69.24
64792;BME280;51226;47.504;19.074;2024-03-02T07:12:51;99716.41;;;12.85;69.25
64792;BME280;51226;47.504;19.074;2024-03-02T07:15:54;99720.91;;;12.92;68.79
64792;BME280;51226;47.504;19.074;2024-03-02T07:19:17;99720.91;;;12.92;68.88
64792;BME280;51226;47.504;19.074;2024-03-02T07:22:20;99717.81;;;13.16;67.39
64792;BME280;51226;47.504;19.074;2024-03-02T07:25:22;99724.59;;;13.03;67.99
64792;BME280;51226;47.504;19.074;2024-03-02T07:28:28;99728.41;;;12.73;68.97
64792;BME280;51226;47.504;19.074;2024-03-02T07:31:31;99726.72;;;12.75;69.53
64792;BME280;51226;47.504;19.074;2024-03-02T07:34:34;99724.94;;;12.74;70.09
64792;BME280;51226;47.504;19.074;2024-03-02T07:37:37;99720.28;;;13.07;69.01
64792;BME280;51226;47.504;19.074;2024-03-02T07:40:39;99726.91;;;12.88;69.50
64792;BME280;51226;47.504;19.074;2024-03-02T07:43:42;99724.56;;;13.02;69.14
64792;BME280;51226;47.504;19.074;2024-03-02T07:46:46;99732.22;;;12.91;69.63
64792;BME280;51226;47.504;19.074;2024-03-02T07:49:49;99740.34;;;13.08;68.95
64792;BME280;51226;47.504;19.074;2024-03-02T07:52:52;99743.59;;;12.93;69.63
64792;BME280;51226;47.504;19.074;2024-03-02T07:55:55;99737.47;;;12.92;69.57
64792;BME280;51226;47.504;19.074;2024-03-02T07:59:04;99744.34;;;12.86;70.04
64792;BME280;51226;47.504;19.074;2024-03-02T08:02:06;99747.06;;;12.92;69.96
64792;BME280;51226;47.504;19.074;2024-03-02T08:05:09;99749.63;;;12.89;69.96
64792;BME280;51226;47.504;19.074;2024-03-02T08:08:12;99746.44;;;13.05;69.32
64792;BME280;51226;47.504;19.074;2024-03-02T08:11:15;99752.34;;;12.93;69.55
64792;BME280;51226;47.504;19.074;2024-03-02T08:14:17;99755.69;;;13.33;67.80
64792;BME280;51226;47.504;19.074;2024-03-02T08:17:20;99751.66;;;13.05;69.02
64792;BME280;51226;47.504;19.074;2024-03-02T08:20:23;99752.38;;;12.95;69.59
64792;BME280;51226;47.504;19.074;2024-03-02T08:23:26;99753.12;;;12.89;70.23
64792;BME280;51226;47.504;19.074;2024-03-02T08:26:28;99751.53;;;12.97;70.02
64792;BME280;51226;47.504;19.074;2024-03-02T08:29:32;99757.03;;;13.11;69.22
64792;BME280;51226;47.504;19.074;2024-03-02T08:32:35;99755.97;;;13.02;69.88
64792;BME280;51226;47.504;19.074;2024-03-02T08:35:38;99748.03;;;12.97;69.85
64792;BME280;51226;47.504;19.074;2024-03-02T08:38:40;99757.66;;;12.98;70.49
64792;BME280;51226;47.504;19.074;2024-03-02T08:41:47;99757.81;;;13.07;70.18
64792;BME280;51226;47.504;19.074;2024-03-02T08:44:49;99757.50;;;12.90;71.11
64792;BME280;51226;47.504;19.074;2024-03-02T08:47:53;99748.00;;;12.95;71.14
64792;BME280;51226;47.504;19.074;2024-03-02T08:50:56;99761.03;;;12.92;71.36
64792;BME280;51226;47.504;19.074;2024-03-02T08:53:59;99758.31;;;12.88;71.78
64792;BME280;51226;47.504;19.074;2024-03-02T08:57:01;99760.59;;;12.69;72.79
64792;BME280;51226;47.504;19.074;2024-03-02T09:00:04;99751.16;;;12.77;72.80
64792;BME280;51226;47.504;19.074;2024-03-02T09:03:07;99755.19;;;13.07;71.44
64792;BME280;51226;47.504;19.074;2024-03-02T09:06:10;99752.72;;;13.15;71.27
64792;BME280;51226;47.504;19.074;2024-03-02T09:09:13;99754.22;;;13.02;71.62
64792;BME280;51226;47.504;19.074;2024-03-02T09:12:16;99757.09;;;13.16;70.95
64792;BME280;51226;47.504;19.074;2024-03-02T09:15:18;99758.44;;;12.94;72.03
64792;BME280;51226;47.504;19.074;2024-03-02T09:18:21;99761.09;;;12.95;72.28
64792;BME280;51226;47.504;19.074;2024-03-02T09:21:24;99759.72;;;13.18;71.53
64792;BME280;51226;47.504;19.074;2024-03-02T09:24:28;99757.09;;;13.18;70.89
64792;BME280;51226;47.504;19.074;2024-03-02T09:27:30;99759.84;;;13.24;70.40
64792;BME280;51226;47.504;19.074;2024-03-02T09:30:33;99761.59;;;13.23;70.28
64792;BME280;51226;47.504;19.074;2024-03-02T09:33:36;99763.13;;;13.12;70.82
64792;BME280;51226;47.504;19.074;2024-03-02T09:36:39;99760.34;;;13.03;71.24
64792;BME280;51226;47.504;19.074;2024-03-02T09:39:43;99768.50;;;13.21;70.50
64792;BME280;51226;47.504;19.074;2024-03-02T09:42:46;99762.16;;;13.05;70.92
64792;BME280;51226;47.504;19.074;2024-03-02T09:45:54;99765.44;;;12.93;71.65
64792;BME280;51226;47.504;19.074;2024-03-02T09:48:57;99761.94;;;12.94;71.86
64792;BME280;51226;47.504;19.074;2024-03-02T09:52:00;99763.69;;;12.94;71.85
64792;BME280;51226;47.504;19.074;2024-03-02T09:55:03;99756.87;;;13.04;71.29
64792;BME280;51226;47.504;19.074;2024-03-02T09:58:07;99760.75;;;13.26;70.17
64792;BME280;51226;47.504;19.074;2024-03-02T10:01:10;99763.19;;;13.15;70.53
64792;BME280;51226;47.504;19.074;2024-03-02T10:04:13;99772.81;;;13.18;70.93
64792;BME280;51226;47.504;19.074;2024-03-02T10:07:18;99758.09;;;13.24;70.55
64792;BME280;51226;47.504;19.074;2024-03-02T10:10:21;99760.44;;;13.07;71.33
64792;BME280;51226;47.504;19.074;2024-03-02T10:13:26;99760.62;;;13.20;70.83
64792;BME280;51226;47.504;19.074;2024-03-02T10:16:29;99760.50;;;13.10;70.83
64792;BME280;51226;47.504;19.074;2024-03-02T10:19:31;99763.28;;;13.21;70.32
64792;BME280;51226;47.504;19.074;2024-03-02T10:22:37;99756.97;;;13.08;70.91
64792;BME280;51226;47.504;19.074;2024-03-02T10:25:40;99759.53;;;13.05;71.24
64792;BME280;51226;47.504;19.074;2024-03-02T10:28:56;99760.62;;;13.20;71.23
64792;BME280;51226;47.504;19.074;2024-03-02T10:32:02;99766.84;;;13.25;70.42
64792;BME280;51226;47.504;19.074;2024-03-02T10:35:05;99759.75;;;13.19;70.35
64792;BME280;51226;47.504;19.074;2024-03-02T10:38:08;99755.38;;;13.16;70.71
64792;BME280;51226;47.504;19.074;2024-03-02T10:41:19;99758.91;;;13.20;70.51
64792;BME280;51226;47.504;19.074;2024-03-02T10:44:25;99759.59;;;13.08;71.53
64792;BME280;51226;47.504;19.074;2024-03-02T10:47:28;99756.97;;;13.08;71.66
64792;BME280;51226;47.504;19.074;2024-03-02T10:50:32;99753.78;;;13.28;71.05
64792;BME280;51226;47.504;19.074;2024-03-02T10:53:35;99743.28;;;13.25;71.04
64792;BME280;51226;47.504;19.074;2024-03-02T10:56:40;99751.00;;;13.17;71.74
64792;BME280;51226;47.504;19.074;2024-03-02T11:00:02;99754.16;;;13.48;70.78
64792;BME280;51226;47.504;19.074;2024-03-02T11:03:06;99751.53;;;13.48;70.48
64792;BME280;51226;47.504;19.074;2024-03-02T11:06:09;99749.87;;;13.55;69.99
64792;BME280;51226;47.504;19.074;2024-03-02T11:09:13;99750.47;;;13.35;70.94
64792;BME280;51226;47.504;19.074;2024-03-02T11:12:22;99747.91;;;13.38;71.11
64792;BME280;51226;47.504;19.074;2024-03-02T11:15:27;99742.84;;;13.50;70.41
64792;BME280;51226;47.504;19.074;2024-03-02T11:18:30;99742.72;;;13.43;70.45
64792;BME280;51226;47.504;19.074;2024-03-02T11:21:34;99737.81;;;13.64;69.68
64792;BME280;51226;47.504;19.074;2024-03-02T11:24:37;99738.03;;;13.78;69.39
64792;BME280;51226;47.504;19.074;2024-03-02T11:30:50;99726.47;;;13.64;70.16
64792;BME280;51226;47.504;19.074;2024-03-02T11:33:54;99732.53;;;13.61;70.68
64792;BME280;51226;47.504;19.074;2024-03-02T11:36:57;99731.53;;;13.55;70.97
64792;BME280;51226;47.504;19.074;2024-03-02T11:39:59;99724.84;;;13.72;70.28
64792;BME280;51226;47.504;19.074;2024-03-02T11:43:03;99727.66;;;13.87;69.31
64792;BME280;51226;47.504;19.074;2024-03-02T11:46:07;99725.13;;;13.94;69.01
64792;BME280;51226;47.504;19.074;2024-03-02T11:49:14;99721.47;;;13.82;69.33
64792;BME280;51226;47.504;19.074;2024-03-02T11:52:17;99724.41;;;14.04;68.45
64792;BME280;51226;47.504;19.074;2024-03-02T11:55:20;99719.75;;;13.84;69.39
64792;BME280;51226;47.504;19.074;2024-03-02T11:58:25;99719.00;;;13.95;68.71
64792;BME280;51226;47.504;19.074;2024-03-02T12:01:29;99724.16;;;13.87;69.17
64792;BME280;51226;47.504;19.074;2024-03-02T12:04:32;99724.91;;;13.77;69.10
64792;BME280;51226;47.504;19.074;2024-03-02T12:07:35;99721.34;;;13.71;68.95
64792;BME280;51226;47.504;19.074;2024-03-02T12:10:38;99728.47;;;13.82;68.85
64792;BME280;51226;47.504;19.074;2024-03-02T12:13:40;99719.72;;;13.83;68.60
64792;BME280;51226;47.504;19.074;2024-03-02T12:16:46;99720.41;;;13.69;69.23
64792;BME280;51226;47.504;19.074;2024-03-02T12:19:49;99724.72;;;13.64;69.52
64792;BME280;51226;47.504;19.074;2024-03-02T12:22:53;99721.97;;;13.55;69.93
64792;BME280;51226;47.504;19.074;2024-03-02T12:25:56;99723.78;;;13.61;69.62
64792;BME280;51226;47.504;19.074;2024-03-02T12:28:59;99725.59;;;13.63;69.47
64792;BME280;51226;47.504;19.074;2024-03-02T12:32:01;99722.81;;;13.54;69.49
64792;BME280;51226;47.504;19.074;2024-03-02T12:35:05;99732.28;;;13.46;69.87
64792;BME280;51226;47.504;19.074;2024-03-02T12:38:07;99727.31;;;13.63;69.12
64792;BME280;51226;47.504;19.074;2024-03-02T12:41:11;99720.28;;;13.59;69.36
64792;BME280;51226;47.504;19.074;2024-03-02T12:44:17;99728.16;;;13.60;69.40
64792;BME280;51226;47.504;19.074;2024-03-02T12:47:20;99728.00;;;13.51;69.74
64792;BME280;51226;47.504;19.074;2024-03-02T12:50:24;99719.72;;;13.81;67.94
64792;BME280;51226;47.504;19.074;2024-03-02T12:53:28;99727.91;;;13.43;69.29
64792;BME280;51226;47.504;19.074;2024-03-02T12:56:30;99726.94;;;13.38;69.69
64792;BME280;51226;47.504;19.074;2024-03-02T12:59:33;99727.91;;;13.43;69.61
64792;BME280;51226;47.504;19.074;2024-03-02T13:02:36;99724.63;;;13.58;69.53
64792;BME280;51226;47.504;19.074;2024-03-02T13:05:39;99728.88;;;13.50;69.90
64792;BME280;51226;47.504;19.074;2024-03-02T13:08:41;99731.38;;;13.42;70.32
64792;BME280;51226;47.504;19.074;2024-03-02T13:11:44;99725.47;;;13.56;69.29
64792;BME280;51226;47.504;19.074;2024-03-02T13:14:53;99722.75;;;13.51;69.33
64792;BME280;51226;47.504;19.074;2024-03-02T13:17:58;99722.00;;;13.57;69.53
64792;BME280;51226;47.504;19.074;2024-03-02T13:21:02;99727.31;;;13.63;68.88
64792;BME280;51226;47.504;19.074;2024-03-02T13:24:05;99730.69;;;13.54;69.42
64792;BME280;51226;47.504;19.074;2024-03-02T13:27:08;99732.50;;;13.58;69.00
64792;BME280;51226;47.504;19.074;2024-03-02T13:30:11;99724.31;;;13.40;69.01
64792;BME280;51226;47.504;19.074;2024-03-02T13:33:13;99731.97;;;13.27;69.53
64792;BME280;51226;47.504;19.074;2024-03-02T13:36:17;99731.03;;;13.24;69.59
64792;BME280;51226;47.504;19.074;2024-03-02T13:39:21;99731.91;;;13.24;69.57
64792;BME280;51226;47.504;19.074;2024-03-02T13:42:24;99731.31;;;13.39;68.67
64792;BME280;51226;47.504;19.074;2024-03-02T13:45:27;99731.66;;;13.09;69.99
64792;BME280;51226;47.504;19.074;2024-03-02T13:48:30;99740.16;;;12.95;70.53
64792;BME280;51226;47.504;19.074;2024-03-02T13:51:33;99735.03;;;13.02;70.27
64792;BME280;51226;47.504;19.074;2024-03-02T13:54:42;99732.50;;;13.08;69.82
64792;BME280;51226;47.504;19.074;2024-03-02T13:57:45;99733.50;;;13.16;69.50
64792;BME280;51226;47.504;19.074;2024-03-02T14:00:49;99744.75;;;13.09;69.29
64792;BME280;51226;47.504;19.074;2024-03-02T14:03:51;99744.44;;;12.90;70.12
64792;BME280;51226;47.504;19.074;2024-03-02T14:06:56;99744.56;;;12.98;70.11
64792;BME280;51226;47.504;19.074;2024-03-02T14:09:59;99739.16;;;12.89;70.66
64792;BME280;51226;47.504;19.074;2024-03-02T14:13:02;99742.63;;;12.88;70.79
64792;BME280;51226;47.504;19.074;2024-03-02T14:16:04;99744.28;;;12.83;71.06
64792;BME280;51226;47.504;19.074;2024-03-02T14:19:07;99748.56;;;12.79;70.91
64792;BME280;51226;47.504;19.074;2024-03-02T14:22:12;99749.63;;;12.89;70.85
64792;BME280;51226;47.504;19.074;2024-03-02T14:25:16;99745.94;;;12.77;71.00
64792;BME280;51226;47.504;19.074;2024-03-02T14:28:19;99755.69;;;12.85;70.41
64792;BME280;51226;47.504;19.074;2024-03-02T14:31:42;99752.41;;;12.96;69.61
64792;BME280;51226;47.504;19.074;2024-03-02T14:34:46;99747.91;;;12.91;69.22
64792;BME280;51226;47.504;19.074;2024-03-02T14:37:49;99762.34;;;12.69;70.23
64792;BME280;51226;47.504;19.074;2024-03-02T14:40:52;99751.78;;;12.64;70.66
64792;BME280;51226;47.504;19.074;2024-03-02T14:43:56;99751.63;;;12.55;70.48
64792;BME280;51226;47.504;19.074;2024-03-02T14:46:58;99756.41;;;12.77;69.63
64792;BME280;51226;47.504;19.074;2024-03-02T14:50:01;99752.28;;;12.90;68.78
64792;BME280;51226;47.504;19.074;2024-03-02T14:53:11;99742.06;;;12.57;70.28
64792;BME280;51226;47.504;19.074;2024-03-02T14:56:14;99757.16;;;12.72;70.38
64792;BME280;51226;47.504;19.074;2024-03-02T14:59:17;99752.72;;;12.68;70.28
64792;BME280;51226;47.504;19.074;2024-03-02T15:02:20;99748.25;;;12.62;70.64
64792;BME280;51226;47.504;19.074;2024-03-02T15:05:23;99750.94;;;12.65;70.33
64792;BME280;51226;47.504;19.074;2024-03-02T15:08:29;99752.09;;;12.81;69.78
64792;BME280;51226;47.504;19.074;2024-03-02T15:11:31;99750.13;;;12.69;70.11
64792;BME280;51226;47.504;19.074;2024-03-02T15:14:34;99746.44;;;12.58;70.49
64792;BME280;51226;47.504;19.074;2024-03-02T15:17:37;99753.28;;;12.53;70.91
64792;BME280;51226;47.504;19.074;2024-03-02T15:20:40;99753.28;;;12.51;71.19
64792;BME280;51226;47.504;19.074;2024-03-02T15:23:43;99739.19;;;12.43;71.56
64792;BME280;51226;47.504;19.074;2024-03-02T15:26:45;99744.53;;;12.51;71.69
64792;BME280;51226;47.504;19.074;2024-03-02T15:29:48;99742.69;;;12.45;71.52
64792;BME280;51226;47.504;19.074;2024-03-02T15:32:53;99743.81;;;12.56;71.34
64792;BME280;51226;47.504;19.074;2024-03-02T15:35:55;99751.69;;;12.58;71.20
64792;BME280;51226;47.504;19.074;2024-03-02T15:39:00;99744.53;;;12.51;71.12
64792;BME280;51226;47.504;19.074;2024-03-02T15:42:04;99748.03;;;12.50;71.38
64792;BME280;51226;47.504;19.074;2024-03-02T15:45:07;99742.72;;;12.47;71.72
64792;BME280;51226;47.504;19.074;2024-03-02T15:48:10;99755.88;;;12.50;71.84
64792;BME280;51226;47.504;19.074;2024-03-02T15:51:13;99756.16;;;12.65;71.44
64792;BME280;51226;47.504;19.074;2024-03-02T15:54:16;99752.09;;;12.81;70.12
64792;BME280;51226;47.504;19.074;2024-03-02T15:57:19;99751.63;;;12.55;71.28
64792;BME280;51226;47.504;19.074;2024-03-02T16:00:22;99749.03;;;12.56;71.65
64792;BME280;51226;47.504;19.074;2024-03-02T16:03:25;99749.97;;;12.60;71.88